A- A+ FrançaisEnglishEspañol中国

Services sur Internet Soldes sur Internet Des idées de cadeaux Météo Météo aéro

La météo à : Autours de vous Tarbes-Lourdes-PyrénéesNimes-Courbessac Toulouse-BlagnacAnnecy-Meythet

La météo aéronautique pour les pilotes, la préparation du vol avec les METAR (METeorological Aerodrome Report, message d'observation des conditions météorologiques pour l'aviation) et Les TAF (Terminal Aerodrome Forecast : message de prévision à court terme des conditions météorologiques pour l'aviation). Et les autres ressources comme les VAC (Visual Approch Chart) et les NOTAM (Notice To Airman) pour préprer les vols.

Aéroport Nanaimo (Canada) / OACI CYCD/ IATA YCD

L'altitude de l'aéroport Nanaimo est de 28 m = 92 ft. Il est situé à proximité de Nanaimo (Canada). La météo générale à 5 jours est disponible pour Extension situé à 7.8 km.

METAR de l'aéroport Nanaimo - CYCD

CYCD 090500Z VRB02KT 15SM OVC083 07/06 A3014 RMK AC8 LAST STFD OBS/NEXT 091400Z SLP208

Décodage du METAR de l'aéroport Nanaimo (CA)

METAR émis par CYCD le samedi 9 novembre 2019 à 05:00 heure TU. Attention ce METAR est obsolète car il a été émis il y a 15 heure et 40 minutes.

La visibilité est de 24.1 km = 15 sm.

La température est de 7°C = 45 °F et le point rosée est de 6°C = 43 °F . Ce qui correspond à 93% d'humidité relative.

Le QNH est de 1021 hPa = 30.15 inHg

Vent de 2 kt = 4 km/h, orienté à °.

Nuages : Couverture nuageuse soudée à 8300 ft = 2530 mètres.

RMK AC8 LAST STFD OBS/NEXT 091400Z SLP208

TAF de l'aéroport Nanaimo - CYCD

CYCD 272338Z 2800/2804 VRB03KT P6SM SCT240 RMK NXT FCST WILL BE ISSUED AT 281445Z

CYCD 272338Z 2800/2804 VRB03KT P6SM nuages épars à 240 remarques NXT trombe ST WILL BE ISSUED AT 281445Z

Aéroport à proximité de Nanaimo

Météo générale à 5 jours à Extension (7.8 km)Aéroport Vancouver (52 km)Aéroport Victoria Intl (56 km)Aéroport Boundary Bay (63 km)Aéroport Orcas Is (80 km)Aéroport Texada Gillies Bay (85 km)Aéroport Friday Harbour (86 km)

Vue aérienne de l'aéroport Nanaimo

NOTAM de l'aéroport Nanaimo

Les NOTAM sont fournis sans aucune garantie de leur actualité. Le pilote est le seul responsable de la vérification de sa validité avant de l'utiliser opérationnellement pour préparer un vol ou l'utiliser lors de sa navigation.

Pas de NOTAM

Sources des données